Time;durP1;ratioP1;P1;durP2;ratioP2;P2;SDS_P1;SDS_P2;PMS_P1;PMS_P2;Temp;Humidity;BMP_temperature;BMP_pressure;BME280_temperature;BME280_humidity;BME280_pressure;Samples;Min_cycle;Max_cycle;Signal;HPM_P1;HPM_P2
2022/08/18 00:02:03;;;;;;;2.08;1.83;;;;;;;;;;4197680;28;20060;-65
2022/08/18 00:04:04;;;;;;;4.03;1.90;;;;;;;;;;4197348;28;20036;-64
2022/08/18 00:06:05;;;;;;;3.10;2.10;;;;;;;;;;4197058;28;20070;-64
2022/08/18 00:08:06;;;;;;;5.18;2.10;;;;;;;;;;4197260;28;20514;-64
2022/08/18 00:10:07;;;;;;;4.72;2.05;;;;;;;;;;4179382;28;20033;-64
2022/08/18 00:12:12;;;;;;;2.80;1.92;;;;;;;;;;4197367;28;20078;-65
2022/08/18 00:14:13;;;;;;;;;;;;;;;;;;4197351;28;20090;-64
2022/08/18 00:16:13;;;;;;;4.13;2.33;;;;;;;;;;4197139;28;19904;-65
2022/08/18 00:18:15;;;;;;;2.80;1.90;;;;;;;;;;4197681;28;20463;-65
2022/08/18 00:20:17;;;;;;;2.28;2.03;;;;;;;;;;4196721;28;20040;-65
2022/08/18 00:22:19;;;;;;;3.17;1.70;;;;;;;;;;4197098;28;20082;-63
2022/08/18 00:24:20;;;;;;;3.40;1.70;;;;;;;;;;4196739;28;20434;-64
2022/08/18 00:26:21;;;;;;;2.40;1.58;;;;;;;;;;4197285;28;20029;-64
2022/08/18 00:28:22;;;;;;;3.35;2.03;;;;;;;;;;4196749;28;20502;-65
2022/08/18 00:30:23;;;;;;;4.35;2.20;;;;;;;;;;4196490;28;20036;-64
2022/08/18 00:32:28;;;;;;;2.35;1.83;;;;;;;;;;4197832;28;20024;-65
2022/08/18 00:34:32;;;;;;;2.00;1.80;;;;;;;;;;4195563;28;20032;-64
2022/08/18 00:36:34;;;;;;;2.72;1.83;;;;;;;;;;4196665;28;20029;-64
2022/08/18 00:38:35;;;;;;;2.55;1.63;;;;;;;;;;4197556;28;20036;-64
2022/08/18 00:40:37;;;;;;;2.67;1.80;;;;;;;;;;4196295;28;20066;-64
2022/08/18 00:42:44;;;;;;;1.60;1.50;;;;;;;;;;4196832;28;20357;-64
2022/08/18 00:44:44;;;;;;;2.83;1.98;;;;;;;;;;4197955;28;20492;-63
2022/08/18 00:46:48;;;;;;;3.70;1.92;;;;;;;;;;4196850;28;20060;-64
2022/08/18 00:48:50;;;;;;;3.90;1.73;;;;;;;;;;4196254;28;20086;-64
2022/08/18 00:51:05;;;;;;;5.68;1.80;;;;;;;;;;4196512;28;20041;-64
2022/08/18 00:53:21;;;;;;;1.90;1.63;;;;;;;;;;4196857;28;20037;-64
2022/08/18 00:55:26;;;;;;;4.97;1.90;;;;;;;;;;4196721;28;20086;-64
2022/08/18 00:57:27;;;;;;;2.95;2.00;;;;;;;;;;4197506;28;20464;-64
2022/08/18 00:59:28;;;;;;;2.38;1.80;;;;;;;;;;4196193;28;20044;-64
2022/08/18 01:01:30;;;;;;;3.53;1.70;;;;;;;;;;4197218;28;20414;-65
2022/08/18 01:03:33;;;;;;;3.78;1.90;;;;;;;;;;4196962;28;20094;-64
2022/08/18 01:05:55;;;;;;;2.38;2.00;;;;;;;;;;4196653;28;20028;-65
2022/08/18 01:07:56;;;;;;;2.30;1.40;;;;;;;;;;4197465;28;20446;-64
2022/08/18 01:10:01;;;;;;;3.50;2.10;;;;;;;;;;4197166;28;20021;-65
2022/08/18 01:12:03;;;;;;;4.85;1.83;;;;;;;;;;4196600;28;20032;-65
2022/08/18 01:14:05;;;;;;;1.73;1.63;;;;;;;;;;4196660;28;20106;-65
2022/08/18 01:23:14;;;;;;;2.67;1.67;;;;;;;;;;4198009;28;20020;-64
2022/08/18 01:27:36;;;;;;;2.20;1.80;;;;;;;;;;4188739;28;20033;-63
2022/08/18 01:29:40;;;;;;;3.22;1.65;;;;;;;;;;4191288;28;20059;-63
2022/08/18 01:31:42;;;;;;;5.07;2.08;;;;;;;;;;4194642;28;20059;-62
2022/08/18 01:33:43;;;;;;;2.22;1.65;;;;;;;;;;4194446;28;20334;-63
2022/08/18 01:35:48;;;;;;;2.03;1.70;;;;;;;;;;4189748;28;20437;-62
2022/08/18 01:37:53;;;;;;;2.42;1.70;;;;;;;;;;4185128;28;20087;-63
2022/08/18 01:39:57;;;;;;;2.45;1.70;;;;;;;;;;4179338;28;20098;-63
2022/08/18 01:41:58;;;;;;;2.30;2.00;;;;;;;;;;4186798;28;20017;-63
2022/08/18 01:43:59;;;;;;;2.25;1.80;;;;;;;;;;4191420;28;20533;-63
2022/08/18 01:46:02;;;;;;;2.10;1.80;;;;;;;;;;4194247;28;20037;-63
2022/08/18 01:48:03;;;;;;;2.83;1.67;;;;;;;;;;4196125;28;20533;-62
2022/08/18 01:50:06;;;;;;;2.17;1.50;;;;;;;;;;4195331;28;20037;-64
2022/08/18 01:52:07;;;;;;;3.20;1.58;;;;;;;;;;4182690;28;20480;-63
2022/08/18 01:54:10;;;;;;;1.95;1.73;;;;;;;;;;4193383;28;20048;-63
2022/08/18 01:56:11;;;;;;;2.92;2.00;;;;;;;;;;4196298;28;20036;-63
2022/08/18 01:58:12;;;;;;;2.55;1.90;;;;;;;;;;4192901;28;20091;-63
2022/08/18 02:00:14;;;;;;;1.70;1.60;;;;;;;;;;4182285;28;20079;-63
2022/08/18 02:02:17;;;;;;;1.70;1.60;;;;;;;;;;4184466;28;20439;-63
2022/08/18 02:04:18;;;;;;;1.90;1.80;;;;;;;;;;4188366;28;20514;-63
2022/08/18 02:06:19;;;;;;;12.20;2.30;;;;;;;;;;4186818;28;20067;-64
2022/08/18 02:08:20;;;;;;;3.95;2.22;;;;;;;;;;4192202;28;20045;-64
2022/08/18 02:10:22;;;;;;;2.72;1.70;;;;;;;;;;4178590;28;20095;-63
2022/08/18 02:12:23;;;;;;;5.82;1.70;;;;;;;;;;4182874;28;20041;-65
2022/08/18 02:14:26;;;;;;;6.68;1.73;;;;;;;;;;4183382;28;20028;-64
2022/08/18 02:16:28;;;;;;;3.28;2.10;;;;;;;;;;4196834;28;20052;-64
2022/08/18 02:18:30;;;;;;;9.75;2.05;;;;;;;;;;4198980;28;20028;-64
2022/08/18 02:20:34;;;;;;;2.72;1.90;;;;;;;;;;4184736;28;20099;-64
2022/08/18 02:22:35;;;;;;;4.15;1.58;;;;;;;;;;4205506;28;20039;-65
2022/08/18 02:24:37;;;;;;;11.95;1.75;;;;;;;;;;4192954;28;20049;-65
2022/08/18 02:26:37;;;;;;;3.55;1.67;;;;;;;;;;4181884;28;20033;-64
2022/08/18 02:28:38;;;;;;;3.92;2.03;;;;;;;;;;4209289;28;20040;-65
2022/08/18 02:30:39;;;;;;;4.20;1.83;;;;;;;;;;4215595;28;20027;-65
2022/08/18 02:32:41;;;;;;;6.18;1.80;;;;;;;;;;4201584;28;20164;-65
2022/08/18 02:34:44;;;;;;;3.60;1.70;;;;;;;;;;4198923;28;20029;-64
2022/08/18 02:36:45;;;;;;;3.80;1.85;;;;;;;;;;4199061;28;20037;-64
2022/08/18 02:38:49;;;;;;;4.57;1.85;;;;;;;;;;4199195;28;20132;-64
2022/08/18 02:40:56;;;;;;;2.90;1.85;;;;;;;;;;4196999;28;20033;-64
2022/08/18 02:42:57;;;;;;;4.40;1.70;;;;;;;;;;4193418;28;20032;-64
2022/08/18 02:44:58;;;;;;;4.28;1.70;;;;;;;;;;4199167;28;20072;-64
2022/08/18 02:46:59;;;;;;;4.65;1.85;;;;;;;;;;4199222;28;20444;-64
2022/08/18 02:49:01;;;;;;;4.57;2.00;;;;;;;;;;4198636;28;20434;-64
2022/08/18 02:51:04;;;;;;;1.90;1.40;;;;;;;;;;4198840;28;20032;-63
2022/08/18 02:53:05;;;;;;;2.08;1.80;;;;;;;;;;4198769;28;20086;-64
2022/08/18 02:55:07;;;;;;;1.65;1.55;;;;;;;;;;4198868;28;20117;-64
2022/08/18 02:57:09;;;;;;;2.55;1.80;;;;;;;;;;4198721;28;20036;-64
2022/08/18 02:59:15;;;;;;;2.40;1.88;;;;;;;;;;4167252;28;20402;-64
2022/08/18 03:01:16;;;;;;;1.85;1.60;;;;;;;;;;4181926;28;20141;-64
2022/08/18 03:03:17;;;;;;;2.08;1.50;;;;;;;;;;4182151;28;20091;-64
2022/08/18 03:05:18;;;;;;;4.07;1.40;;;;;;;;;;4181944;28;20376;-64
2022/08/18 03:07:19;;;;;;;5.10;1.85;;;;;;;;;;4182184;28;20037;-64
2022/08/18 03:09:21;;;;;;;3.92;1.63;;;;;;;;;;4179221;28;20083;-65
2022/08/18 03:11:23;;;;;;;3.75;1.88;;;;;;;;;;4164881;28;20176;-63
2022/08/18 03:13:24;;;;;;;2.60;1.58;;;;;;;;;;4181863;28;20036;-64
2022/08/18 03:15:25;;;;;;;2.22;1.52;;;;;;;;;;4182501;28;20040;-64
2022/08/18 03:17:26;;;;;;;3.13;1.95;;;;;;;;;;4182027;28;20362;-65
2022/08/18 03:19:28;;;;;;;2.85;1.63;;;;;;;;;;4181507;28;20110;-64
2022/08/18 03:21:34;;;;;;;3.70;1.98;;;;;;;;;;4181576;28;20087;-64
2022/08/18 03:23:35;;;;;;;2.67;1.58;;;;;;;;;;4198971;28;20069;-64
2022/08/18 03:25:42;;;;;;;3.47;1.80;;;;;;;;;;4189500;28;20021;-64
2022/08/18 03:27:43;;;;;;;1.70;1.33;;;;;;;;;;4194886;28;20559;-62
2022/08/18 03:29:44;;;;;;;2.33;1.63;;;;;;;;;;4185551;28;20095;-64
2022/08/18 03:31:47;;;;;;;1.80;1.50;;;;;;;;;;4181906;28;20037;-64
2022/08/18 03:33:48;;;;;;;1.63;1.50;;;;;;;;;;4181824;28;20427;-64
2022/08/18 03:35:49;;;;;;;5.75;1.75;;;;;;;;;;4181442;28;20091;-64
2022/08/18 03:37:50;;;;;;;2.10;1.50;;;;;;;;;;4181553;28;20465;-64
2022/08/18 03:39:54;;;;;;;2.53;1.80;;;;;;;;;;4181074;28;20048;-64
2022/08/18 03:41:56;;;;;;;2.55;1.30;;;;;;;;;;4181905;28;20190;-64
2022/08/18 03:43:59;;;;;;;2.50;1.60;;;;;;;;;;4181621;28;20091;-65
2022/08/18 03:46:04;;;;;;;1.75;1.65;;;;;;;;;;4181639;28;20106;-64
2022/08/18 03:48:05;;;;;;;1.98;1.48;;;;;;;;;;4181261;28;20081;-64
2022/08/18 03:50:06;;;;;;;3.25;1.60;;;;;;;;;;4181133;28;20090;-64
2022/08/18 03:52:08;;;;;;;3.05;2.00;;;;;;;;;;4180975;28;20049;-64
2022/08/18 03:54:11;;;;;;;1.80;1.52;;;;;;;;;;4181373;28;20045;-64
2022/08/18 03:56:16;;;;;;;1.65;1.52;;;;;;;;;;4181423;28;20045;-64
2022/08/18 03:58:17;;;;;;;2.38;1.60;;;;;;;;;;4181443;28;20095;-64
2022/08/18 04:00:18;;;;;;;2.28;1.48;;;;;;;;;;4180962;28;20549;-64
2022/08/18 04:02:19;;;;;;;1.60;1.50;;;;;;;;;;4181141;28;20040;-65
2022/08/18 04:04:21;;;;;;;3.80;1.60;;;;;;;;;;4181072;28;20091;-65
2022/08/18 04:06:26;;;;;;;2.58;1.52;;;;;;;;;;4181280;28;20094;-63
2022/08/18 04:08:27;;;;;;;2.92;1.55;;;;;;;;;;4181249;28;20114;-64
2022/08/18 04:10:28;;;;;;;2.17;1.50;;;;;;;;;;4181043;28;20388;-65
2022/08/18 04:12:31;;;;;;;1.45;1.35;;;;;;;;;;4181044;28;20033;-64
2022/08/18 04:14:32;;;;;;;2.53;1.77;;;;;;;;;;4181278;28;20032;-64
2022/08/18 04:16:37;;;;;;;1.63;1.50;;;;;;;;;;4180961;28;20428;-64
2022/08/18 04:18:40;;;;;;;2.25;1.42;;;;;;;;;;4181009;28;20083;-64
2022/08/18 04:20:41;;;;;;;2.33;1.58;;;;;;;;;;4180713;28;20099;-64
2022/08/18 04:22:44;;;;;;;1.52;1.42;;;;;;;;;;4180882;28;20106;-64
2022/08/18 04:24:45;;;;;;;7.18;1.85;;;;;;;;;;4180971;28;20430;-64
2022/08/18 04:26:47;;;;;;;1.50;1.40;;;;;;;;;;4181129;28;20098;-64
2022/08/18 04:28:48;;;;;;;2.97;1.67;;;;;;;;;;4180895;28;20161;-64
2022/08/18 04:30:48;;;;;;;1.77;1.63;;;;;;;;;;4174877;28;20041;-64
2022/08/18 04:32:50;;;;;;;2.72;1.58;;;;;;;;;;4180487;28;20032;-64
2022/08/18 04:34:51;;;;;;;1.50;1.40;;;;;;;;;;4180144;28;20095;-65
2022/08/18 04:36:55;;;;;;;1.65;1.48;;;;;;;;;;4181192;28;20074;-64
2022/08/18 04:38:56;;;;;;;2.05;1.40;;;;;;;;;;4180556;28;20037;-64
2022/08/18 04:40:57;;;;;;;1.73;1.45;;;;;;;;;;4180213;28;20040;-65
2022/08/18 04:42:58;;;;;;;1.98;1.70;;;;;;;;;;4180521;28;20472;-64
2022/08/18 04:44:59;;;;;;;1.70;1.40;;;;;;;;;;4180401;28;20113;-64
2022/08/18 04:47:03;;;;;;;2.75;2.00;;;;;;;;;;4180417;28;20032;-65
2022/08/18 04:49:04;;;;;;;;;;;;;;;;;;4181082;28;20041;-64
2022/08/18 04:51:15;;;;;;;1.88;1.50;;;;;;;;;;4180833;28;19951;-64
2022/08/18 04:55:37;;;;;;;1.95;1.65;;;;;;;;;;4181355;28;20037;-64
2022/08/18 04:57:38;;;;;;;1.80;1.63;;;;;;;;;;4180275;28;20443;-64
2022/08/18 04:59:40;;;;;;;1.80;1.50;;;;;;;;;;4180423;28;20102;-64
2022/08/18 05:01:44;;;;;;;1.50;1.40;;;;;;;;;;4180315;28;20465;-64
2022/08/18 05:03:45;;;;;;;1.83;1.63;;;;;;;;;;4180488;28;20094;-64
2022/08/18 05:05:45;;;;;;;2.47;1.77;;;;;;;;;;4180340;28;20534;-64
2022/08/18 05:07:46;;;;;;;1.80;1.50;;;;;;;;;;4180338;28;20029;-64
2022/08/18 05:09:47;;;;;;;1.80;1.70;;;;;;;;;;4180148;28;20033;-64
2022/08/18 05:11:49;;;;;;;3.30;1.60;;;;;;;;;;4179496;28;20068;-64
2022/08/18 05:13:51;;;;;;;2.75;1.85;;;;;;;;;;4180556;28;20033;-64
2022/08/18 05:15:56;;;;;;;2.58;1.70;;;;;;;;;;4180556;28;20037;-64
2022/08/18 05:18:00;;;;;;;1.65;1.52;;;;;;;;;;4180493;28;20041;-65
2022/08/18 05:20:03;;;;;;;2.60;1.95;;;;;;;;;;4179924;28;20041;-64
2022/08/18 05:22:06;;;;;;;1.50;1.40;;;;;;;;;;4180432;28;20033;-64
2022/08/18 05:24:08;;;;;;;2.15;1.70;;;;;;;;;;4181412;28;20048;-64
2022/08/18 05:26:13;;;;;;;1.90;1.40;;;;;;;;;;4194954;28;20533;-65
2022/08/18 05:28:14;;;;;;;3.75;1.98;;;;;;;;;;4195079;28;20037;-63
2022/08/18 05:30:15;;;;;;;3.70;1.52;;;;;;;;;;4178925;28;20072;-64
2022/08/18 05:32:16;;;;;;;4.95;1.75;;;;;;;;;;4196739;28;20472;-63
2022/08/18 05:34:19;;;;;;;2.80;1.70;;;;;;;;;;4196783;28;20115;-63
2022/08/18 05:36:20;;;;;;;8.13;1.80;;;;;;;;;;4196311;28;20066;-63
2022/08/18 05:38:38;;;;;;;2.97;1.70;;;;;;;;;;4196398;28;20029;-64
2022/08/18 05:40:39;;;;;;;2.25;1.65;;;;;;;;;;4196111;28;20361;-63
2022/08/18 05:42:41;;;;;;;2.38;1.60;;;;;;;;;;4196421;28;20025;-63
2022/08/18 05:44:46;;;;;;;3.85;1.60;;;;;;;;;;4196898;28;20041;-63
2022/08/18 05:46:46;;;;;;;;;;;;;;;;;;4200743;28;20016;-63
2022/08/18 05:48:47;;;;;;;3.58;1.75;;;;;;;;;;4199957;28;19974;-63
2022/08/18 05:50:48;;;;;;;4.85;1.77;;;;;;;;;;4200165;28;20697;-63
2022/08/18 05:52:52;;;;;;;1.90;1.80;;;;;;;;;;4200071;28;20071;-63
2022/08/18 05:57:17;;;;;;;2.55;1.90;;;;;;;;;;4200627;28;20350;-63
2022/08/18 05:59:30;;;;;;;2.38;2.08;;;;;;;;;;4199301;28;20040;-63
2022/08/18 06:01:40;;;;;;;2.50;1.70;;;;;;;;;;4199204;28;20087;-63
2022/08/18 06:03:45;;;;;;;1.90;1.50;;;;;;;;;;4199065;28;20558;-63
2022/08/18 06:05:45;;;;;;;;;;;;;;;;;;4199699;28;20040;-63
2022/08/18 06:07:52;;;;;;;1.85;1.73;;;;;;;;;;4198636;28;19908;-63
2022/08/18 06:09:54;;;;;;;3.33;1.67;;;;;;;;;;4198485;28;20044;-63
2022/08/18 06:12:03;;;;;;;3.45;1.98;;;;;;;;;;4199269;28;20379;-63
2022/08/18 06:14:04;;;;;;;2.03;1.80;;;;;;;;;;4199596;28;20040;-64
2022/08/18 06:16:36;;;;;;;2.75;2.00;;;;;;;;;;4197120;28;20100;-63
2022/08/18 06:18:46;;;;;;;2.80;1.77;;;;;;;;;;4199659;28;20016;-63
2022/08/18 06:21:06;;;;;;;3.75;1.65;;;;;;;;;;4199168;28;20445;-63
2022/08/18 06:23:13;;;;;;;3.33;2.05;;;;;;;;;;4199601;28;20434;-64
2022/08/18 06:25:21;;;;;;;2.10;1.90;;;;;;;;;;4199170;28;20115;-63
2022/08/18 06:27:28;;;;;;;3.40;1.70;;;;;;;;;;4199133;28;20036;-62
2022/08/18 06:30:00;;;;;;;1.80;1.65;;;;;;;;;;4198906;28;20110;-63
2022/08/18 06:32:01;;;;;;;1.85;1.65;;;;;;;;;;4179106;28;20032;-63
2022/08/18 06:34:02;;;;;;;2.05;1.80;;;;;;;;;;4198368;28;20032;-62
2022/08/18 06:36:13;;;;;;;2.05;1.80;;;;;;;;;;4199114;28;20111;-63
2022/08/18 06:40:38;;;;;;;1.80;1.70;;;;;;;;;;4199565;28;20040;-63
2022/08/18 06:42:39;;;;;;;2.80;1.88;;;;;;;;;;4198811;28;20085;-63
2022/08/18 06:44:50;;;;;;;2.53;2.30;;;;;;;;;;4198783;28;20114;-63
2022/08/18 06:46:54;;;;;;;3.00;1.90;;;;;;;;;;4198859;28;20028;-63
2022/08/18 06:48:58;;;;;;;2.33;2.07;;;;;;;;;;4198877;28;20411;-64
2022/08/18 06:51:03;;;;;;;2.15;1.95;;;;;;;;;;4198064;28;20082;-63
2022/08/18 06:53:05;;;;;;;2.88;2.28;;;;;;;;;;4198799;28;20071;-63
2022/08/18 06:55:07;;;;;;;2.22;1.95;;;;;;;;;;4198561;28;20049;-63
2022/08/18 06:57:20;;;;;;;1.88;1.67;;;;;;;;;;4197904;28;20094;-63
2022/08/18 06:59:26;;;;;;;2.10;1.95;;;;;;;;;;4198353;28;20086;-62
2022/08/18 07:01:28;;;;;;;1.88;1.55;;;;;;;;;;4198192;28;20090;-63
2022/08/18 07:03:38;;;;;;;1.88;1.77;;;;;;;;;;4198539;28;20041;-63
2022/08/18 07:05:56;;;;;;;2.10;1.75;;;;;;;;;;4199373;28;20025;-63
2022/08/18 07:08:03;;;;;;;2.25;2.00;;;;;;;;;;4198492;28;20036;-63
2022/08/18 07:10:06;;;;;;;2.28;1.85;;;;;;;;;;4197992;28;20531;-63
2022/08/18 07:12:08;;;;;;;2.28;2.08;;;;;;;;;;4198408;28;20024;-63
2022/08/18 07:14:13;;;;;;;2.10;1.90;;;;;;;;;;4188055;28;20044;-63
2022/08/18 07:16:22;;;;;;;2.05;1.85;;;;;;;;;;4198964;28;20078;-63
2022/08/18 07:18:25;;;;;;;2.42;2.00;;;;;;;;;;4198847;28;20074;-64
2022/08/18 07:20:26;;;;;;;3.40;1.90;;;;;;;;;;4197683;28;20102;-63
2022/08/18 07:22:27;;;;;;;1.75;1.63;;;;;;;;;;4199035;28;20017;-63
2022/08/18 07:24:32;;;;;;;2.10;1.90;;;;;;;;;;4198477;28;20514;-64
2022/08/18 07:26:52;;;;;;;2.05;1.85;;;;;;;;;;4185802;28;20037;-63
2022/08/18 07:29:11;;;;;;;2.10;1.90;;;;;;;;;;4182425;28;20051;-63
2022/08/18 07:31:25;;;;;;;2.50;2.22;;;;;;;;;;4181864;28;20476;-63
2022/08/18 07:33:26;;;;;;;2.80;2.13;;;;;;;;;;4181905;28;20037;-63
2022/08/18 07:35:31;;;;;;;2.00;1.77;;;;;;;;;;4181252;28;20029;-63
2022/08/18 07:37:35;;;;;;;2.55;2.10;;;;;;;;;;4182128;28;20021;-63
2022/08/18 07:39:42;;;;;;;2.15;1.95;;;;;;;;;;4181748;28;20067;-63
2022/08/18 07:41:56;;;;;;;2.00;1.80;;;;;;;;;;4181791;28;20086;-63
2022/08/18 07:43:57;;;;;;;3.05;2.28;;;;;;;;;;4181900;28;20067;-63
2022/08/18 07:46:03;;;;;;;2.10;1.90;;;;;;;;;;4181274;28;20033;-63
2022/08/18 07:48:11;;;;;;;4.00;2.25;;;;;;;;;;4180688;28;20182;-63
2022/08/18 07:50:16;;;;;;;3.22;2.15;;;;;;;;;;4181263;28;20091;-63
2022/08/18 07:52:30;;;;;;;1.90;1.80;;;;;;;;;;4181280;28;20037;-63
2022/08/18 07:54:44;;;;;;;2.67;2.17;;;;;;;;;;4181466;28;20132;-63
2022/08/18 07:56:49;;;;;;;2.70;2.20;;;;;;;;;;4181528;28;20037;-63
2022/08/18 07:58:55;;;;;;;2.70;2.20;;;;;;;;;;4180159;28;20036;-63
2022/08/18 08:00:59;;;;;;;3.00;2.10;;;;;;;;;;4181424;28;20456;-63
2022/08/18 08:03:00;;;;;;;2.80;2.03;;;;;;;;;;4181755;28;20036;-63
2022/08/18 08:05:20;;;;;;;3.13;2.35;;;;;;;;;;4181619;28;20415;-62
2022/08/18 08:07:27;;;;;;;2.42;2.00;;;;;;;;;;4181557;28;20109;-63
2022/08/18 08:09:35;;;;;;;2.22;2.03;;;;;;;;;;4180835;28;20041;-64
2022/08/18 08:11:38;;;;;;;2.03;1.92;;;;;;;;;;4181170;28;20094;-64
2022/08/18 08:13:52;;;;;;;2.55;2.10;;;;;;;;;;4181343;28;20032;-63
2022/08/18 08:16:05;;;;;;;2.58;1.92;;;;;;;;;;4180650;28;20423;-63
2022/08/18 08:18:09;;;;;;;2.55;2.35;;;;;;;;;;4180428;28;20037;-63
2022/08/18 08:20:19;;;;;;;2.63;2.42;;;;;;;;;;4181024;28;20067;-63
2022/08/18 08:22:38;;;;;;;2.33;1.80;;;;;;;;;;4181232;28;20438;-64
2022/08/18 08:24:39;;;;;;;2.58;2.25;;;;;;;;;;4181224;28;20040;-63
2022/08/18 08:26:59;;;;;;;2.80;2.38;;;;;;;;;;4181129;28;20098;-63
2022/08/18 08:29:11;;;;;;;2.70;2.45;;;;;;;;;;4181137;28;20037;-65
2022/08/18 08:31:20;;;;;;;2.58;2.03;;;;;;;;;;4180910;28;20045;-63
2022/08/18 08:33:30;;;;;;;2.50;1.95;;;;;;;;;;4181285;28;20085;-62
2022/08/18 08:35:44;;;;;;;2.72;2.35;;;;;;;;;;4181192;28;20029;-62
2022/08/18 08:37:52;;;;;;;2.50;2.08;;;;;;;;;;4180841;28;20102;-62
2022/08/18 08:39:56;;;;;;;1.98;1.80;;;;;;;;;;4180731;28;20066;-62
2022/08/18 08:42:04;;;;;;;4.05;2.00;;;;;;;;;;4180649;28;20037;-63
2022/08/18 08:44:28;;;;;;;2.35;2.15;;;;;;;;;;4180592;28;20033;-62
2022/08/18 08:46:32;;;;;;;2.30;2.10;;;;;;;;;;4168941;28;20029;-62
2022/08/18 08:48:35;;;;;;;3.75;2.20;;;;;;;;;;4180409;28;20036;-62
2022/08/18 08:50:42;;;;;;;2.97;2.67;;;;;;;;;;4180872;28;20063;-63
2022/08/18 08:52:46;;;;;;;2.20;2.00;;;;;;;;;;4180577;28;20040;-63
2022/08/18 08:54:47;;;;;;;2.65;2.42;;;;;;;;;;4180949;28;20045;-62
2022/08/18 08:56:49;;;;;;;3.28;2.13;;;;;;;;;;4181065;28;20083;-62
2022/08/18 08:58:58;;;;;;;2.47;2.28;;;;;;;;;;4181172;28;20095;-62
2022/08/18 09:00:59;;;;;;;2.30;2.10;;;;;;;;;;4180667;28;20048;-63
2022/08/18 09:03:04;;;;;;;2.22;1.95;;;;;;;;;;4181115;28;20531;-62
2022/08/18 09:05:07;;;;;;;2.63;2.42;;;;;;;;;;4181126;28;20099;-62
2022/08/18 09:07:08;;;;;;;3.78;2.20;;;;;;;;;;4181106;28;20029;-62
2022/08/18 09:09:12;;;;;;;2.63;2.42;;;;;;;;;;4180995;28;20059;-62
2022/08/18 09:11:26;;;;;;;3.35;2.25;;;;;;;;;;4180654;28;20033;-62
2022/08/18 09:13:37;;;;;;;2.67;2.47;;;;;;;;;;4180965;28;20461;-65
2022/08/18 09:15:41;;;;;;;3.25;2.33;;;;;;;;;;4180927;28;20044;-65
2022/08/18 09:17:57;;;;;;;2.28;2.08;;;;;;;;;;4180931;28;20396;-61
2022/08/18 09:20:13;;;;;;;2.28;2.10;;;;;;;;;;4181371;28;20122;-62
2022/08/18 09:22:16;;;;;;;2.20;2.03;;;;;;;;;;4184251;28;20045;-63
2022/08/18 09:27:01;;;;;;;2.60;2.28;;;;;;;;;;4170200;28;20547;-62
2022/08/18 09:29:26;;;;;;;2.53;2.33;;;;;;;;;;4184065;28;20033;-63
2022/08/18 09:31:27;;;;;;;2.47;2.28;;;;;;;;;;4183202;28;20427;-62
2022/08/18 09:33:46;;;;;;;2.22;2.00;;;;;;;;;;4183408;28;20037;-63
2022/08/18 09:35:53;;;;;;;2.28;2.08;;;;;;;;;;4184137;28;20071;-64
2022/08/18 09:42:42;;;;;;;3.75;2.13;;;;;;;;;;4184330;28;20025;-62
2022/08/18 09:44:46;;;;;;;3.35;2.50;;;;;;;;;;4183493;28;20143;-62
2022/08/18 09:46:47;;;;;;;3.92;2.63;;;;;;;;;;4184007;28;20032;-64
2022/08/18 09:49:07;;;;;;;2.40;2.20;;;;;;;;;;4184038;28;20040;-64
2022/08/18 09:51:17;;;;;;;2.60;2.38;;;;;;;;;;4182662;28;20094;-64
2022/08/18 09:53:55;;;;;;;2.40;2.20;;;;;;;;;;4183438;28;20037;-64
2022/08/18 09:55:57;;;;;;;2.53;2.10;;;;;;;;;;4182978;28;20049;-64
2022/08/18 09:58:16;;;;;;;2.00;1.88;;;;;;;;;;4183967;28;20129;-65
2022/08/18 10:00:26;;;;;;;2.45;2.25;;;;;;;;;;4183549;28;20059;-65
2022/08/18 10:02:30;;;;;;;3.67;2.17;;;;;;;;;;4183793;28;20469;-64
2022/08/18 10:04:31;;;;;;;2.45;2.25;;;;;;;;;;4183786;28;20036;-64
2022/08/18 10:06:36;;;;;;;2.60;2.40;;;;;;;;;;4183837;28;20105;-64
2022/08/18 10:08:49;;;;;;;2.53;2.33;;;;;;;;;;4183428;28;20037;-64
2022/08/18 10:10:56;;;;;;;2.38;2.17;;;;;;;;;;4183282;28;20083;-65
2022/08/18 10:13:09;;;;;;;2.60;2.25;;;;;;;;;;4183644;28;20041;-65
2022/08/18 10:15:16;;;;;;;2.63;2.30;;;;;;;;;;4183659;28;20041;-64
2022/08/18 10:17:35;;;;;;;2.70;2.45;;;;;;;;;;4183706;28;20102;-64
2022/08/18 10:19:42;;;;;;;2.47;2.28;;;;;;;;;;4183543;28;20032;-65
2022/08/18 10:22:03;;;;;;;2.83;2.50;;;;;;;;;;4183051;28;20052;-64
2022/08/18 10:24:07;;;;;;;2.60;2.40;;;;;;;;;;4183528;28;20116;-64
2022/08/18 10:26:26;;;;;;;2.60;2.40;;;;;;;;;;4183422;28;20098;-64
2022/08/18 10:29:05;;;;;;;2.20;2.10;;;;;;;;;;4183276;28;20037;-64
2022/08/18 10:31:07;;;;;;;3.53;2.35;;;;;;;;;;4114734;28;20093;-64
2022/08/18 10:33:10;;;;;;;3.10;2.42;;;;;;;;;;4116235;28;20094;-65
2022/08/18 10:35:40;;;;;;;2.20;2.00;;;;;;;;;;4116460;28;20047;-64
2022/08/18 10:37:46;;;;;;;2.95;2.20;;;;;;;;;;4173790;28;20036;-64
2022/08/18 10:39:59;;;;;;;2.50;2.30;;;;;;;;;;4182899;28;20041;-64
2022/08/18 10:42:20;;;;;;;2.97;2.30;;;;;;;;;;4183080;28;20488;-64
2022/08/18 10:44:22;;;;;;;2.80;2.60;;;;;;;;;;4182856;28;20025;-64
2022/08/18 10:46:24;;;;;;;2.65;2.45;;;;;;;;;;4182531;28;20032;-64
2022/08/18 10:48:30;;;;;;;2.60;2.40;;;;;;;;;;4183204;28;20029;-65
2022/08/18 10:50:42;;;;;;;2.80;2.60;;;;;;;;;;4179499;28;20029;-65
2022/08/18 10:52:57;;;;;;;2.40;2.20;;;;;;;;;;4183131;28;20558;-64
2022/08/18 10:55:08;;;;;;;2.30;2.10;;;;;;;;;;4182872;28;20511;-64
2022/08/18 10:57:16;;;;;;;2.58;2.22;;;;;;;;;;4182975;28;20061;-64
2022/08/18 10:59:32;;;;;;;2.00;1.90;;;;;;;;;;4182831;28;20037;-65
2022/08/18 11:01:50;;;;;;;2.55;2.35;;;;;;;;;;4182448;28;20041;-65
2022/08/18 11:04:07;;;;;;;2.40;2.20;;;;;;;;;;4182701;28;20032;-64
2022/08/18 11:06:13;;;;;;;2.45;2.25;;;;;;;;;;4182775;28;20098;-64
2022/08/18 11:08:16;;;;;;;2.45;2.20;;;;;;;;;;4182756;28;20020;-65
2022/08/18 11:10:33;;;;;;;3.45;2.20;;;;;;;;;;4181842;28;20029;-65
2022/08/18 11:12:53;;;;;;;2.42;2.20;;;;;;;;;;4182636;28;20037;-65
2022/08/18 11:15:06;;;;;;;5.13;2.65;;;;;;;;;;4182458;28;20538;-64
2022/08/18 11:17:13;;;;;;;2.58;2.38;;;;;;;;;;4182555;28;20033;-64
2022/08/18 11:19:15;;;;;;;2.30;2.10;;;;;;;;;;4182468;28;20083;-65
2022/08/18 11:21:23;;;;;;;2.38;2.17;;;;;;;;;;4182134;28;20049;-64
2022/08/18 11:23:24;;;;;;;2.50;2.30;;;;;;;;;;4181482;28;20083;-63
2022/08/18 11:25:36;;;;;;;3.70;2.80;;;;;;;;;;4182403;28;20455;-65
2022/08/18 11:27:44;;;;;;;3.03;2.30;;;;;;;;;;4189576;28;20054;-65
2022/08/18 11:29:45;;;;;;;2.58;2.38;;;;;;;;;;4197860;28;20032;-64
2022/08/18 11:31:48;;;;;;;2.53;2.25;;;;;;;;;;4198093;28;20082;-64
2022/08/18 11:33:49;;;;;;;2.60;2.38;;;;;;;;;;4198536;28;20098;-64
2022/08/18 11:35:52;;;;;;;2.30;2.17;;;;;;;;;;4197989;28;20037;-65
2022/08/18 11:37:56;;;;;;;2.50;2.30;;;;;;;;;;4198124;28;20045;-64
2022/08/18 11:40:00;;;;;;;2.20;2.00;;;;;;;;;;4198512;28;20403;-65
2022/08/18 11:42:02;;;;;;;2.50;2.30;;;;;;;;;;4198043;28;20106;-63
2022/08/18 11:44:06;;;;;;;2.90;2.60;;;;;;;;;;4197754;28;20029;-64
2022/08/18 11:46:21;;;;;;;2.70;2.25;;;;;;;;;;4197905;28;20037;-65
2022/08/18 11:48:25;;;;;;;2.08;1.98;;;;;;;;;;4198027;28;20033;-64
2022/08/18 11:50:27;;;;;;;3.33;2.20;;;;;;;;;;4197579;28;20029;-64
2022/08/18 11:52:28;;;;;;;2.60;2.40;;;;;;;;;;4198189;28;20311;-64
2022/08/18 11:54:41;;;;;;;2.85;2.65;;;;;;;;;;4197675;28;20040;-64
2022/08/18 11:56:43;;;;;;;2.33;2.13;;;;;;;;;;4197849;28;20070;-64
2022/08/18 11:58:45;;;;;;;3.08;2.33;;;;;;;;;;4197544;28;20536;-65
2022/08/18 12:00:45;;;;;;;2.90;2.65;;;;;;;;;;4197727;28;20442;-65
2022/08/18 12:02:47;;;;;;;2.55;2.35;;;;;;;;;;4198252;28;20028;-64
2022/08/18 12:04:52;;;;;;;2.08;1.98;;;;;;;;;;4197829;28;20040;-64
2022/08/18 12:07:11;;;;;;;1.88;1.77;;;;;;;;;;4197484;28;20082;-64
2022/08/18 12:09:17;;;;;;;2.50;2.30;;;;;;;;;;4197950;28;20086;-64
2022/08/18 12:11:20;;;;;;;2.20;2.00;;;;;;;;;;4198091;28;20078;-65
2022/08/18 12:13:24;;;;;;;2.63;2.30;;;;;;;;;;4197564;28;20421;-65
2022/08/18 12:15:27;;;;;;;2.55;2.35;;;;;;;;;;4180073;28;20443;-64
2022/08/18 12:17:30;;;;;;;2.58;2.30;;;;;;;;;;4197291;28;20028;-64
2022/08/18 12:19:31;;;;;;;2.80;2.13;;;;;;;;;;4197467;28;20040;-64
2022/08/18 12:21:36;;;;;;;2.50;2.17;;;;;;;;;;4197371;28;20051;-64
2022/08/18 12:23:39;;;;;;;2.63;2.28;;;;;;;;;;4197447;28;20550;-65
2022/08/18 12:25:40;;;;;;;2.55;2.35;;;;;;;;;;4197314;28;20033;-65
2022/08/18 12:27:41;;;;;;;2.72;1.88;;;;;;;;;;4197646;28;20115;-65
2022/08/18 12:29:42;;;;;;;2.50;2.33;;;;;;;;;;4197440;28;20086;-65
2022/08/18 12:31:46;;;;;;;3.10;2.50;;;;;;;;;;4197021;28;20025;-64
2022/08/18 12:33:47;;;;;;;2.15;1.95;;;;;;;;;;4197203;28;20101;-64
2022/08/18 12:35:54;;;;;;;2.63;2.30;;;;;;;;;;4197528;28;20560;-64
2022/08/18 12:37:55;;;;;;;3.58;2.25;;;;;;;;;;4198208;28;20456;-64
2022/08/18 12:39:57;;;;;;;2.58;2.38;;;;;;;;;;4196936;28;20114;-64
2022/08/18 12:41:58;;;;;;;2.33;2.13;;;;;;;;;;4197202;28;20044;-64
2022/08/18 12:43:59;;;;;;;2.60;2.40;;;;;;;;;;4197416;28;20032;-65
2022/08/18 12:46:03;;;;;;;2.63;2.30;;;;;;;;;;4197434;28;20387;-64
2022/08/18 12:48:07;;;;;;;2.22;2.03;;;;;;;;;;4197241;28;20036;-64
2022/08/18 12:50:11;;;;;;;2.30;2.10;;;;;;;;;;4196874;28;20071;-64
2022/08/18 12:52:12;;;;;;;2.05;1.95;;;;;;;;;;4197267;28;20033;-64
2022/08/18 12:54:13;;;;;;;2.30;2.10;;;;;;;;;;4197240;28;20052;-64
2022/08/18 12:56:21;;;;;;;2.25;2.05;;;;;;;;;;4197627;28;20036;-64